createdAt,value
2022-11-05T00:03:02.884Z,61.92
2022-11-05T00:06:09.440Z,61.82
2022-11-05T00:09:13.324Z,61.88
2022-11-05T00:12:27.107Z,61.80
2022-11-05T00:15:31.029Z,61.72
2022-11-05T00:18:16.264Z,61.85
2022-11-05T00:21:01.682Z,61.64
2022-11-05T00:24:05.377Z,61.73
2022-11-05T00:26:50.494Z,61.62
2022-11-05T00:29:36.092Z,61.63
2022-11-05T00:32:21.323Z,61.69
2022-11-05T00:35:07.532Z,61.45
2022-11-05T00:37:54.059Z,61.68
2022-11-05T00:40:39.424Z,61.54
2022-11-05T00:43:43.102Z,61.51
2022-11-05T00:46:28.292Z,61.53
2022-11-05T00:49:45.857Z,61.49
2022-11-05T00:52:49.677Z,61.37
2022-11-05T00:55:34.907Z,61.29
2022-11-05T00:58:21.948Z,61.54
2022-11-05T01:01:07.459Z,61.06
2022-11-05T01:03:52.753Z,61.21
2022-11-05T01:06:38.021Z,61.64
2022-11-05T01:09:23.173Z,62.58
2022-11-05T01:12:08.393Z,63.11
2022-11-05T01:14:53.631Z,63.21
2022-11-05T01:17:38.903Z,63.41
2022-11-05T01:20:24.470Z,63.57
2022-11-05T01:23:13.488Z,63.79
2022-11-05T01:25:59.438Z,63.61
2022-11-05T01:28:44.903Z,64.01
2022-11-05T01:31:30.038Z,63.97
2022-11-05T01:34:15.283Z,64.23
2022-11-05T01:37:01.138Z,64.11
2022-11-05T01:39:46.497Z,64.23
2022-11-05T01:42:33.498Z,64.50
2022-11-05T01:45:20.654Z,64.49
2022-11-05T01:48:17.019Z,64.38
2022-11-05T01:51:10.340Z,64.50
2022-11-05T01:54:02.835Z,64.55
2022-11-05T01:56:57.882Z,64.54
2022-11-05T01:59:49.298Z,64.61
2022-11-05T02:02:35.006Z,64.43
2022-11-05T02:05:20.190Z,64.71
2022-11-05T02:08:05.950Z,64.54
2022-11-05T02:10:51.951Z,64.56
2022-11-05T02:13:37.340Z,64.59
2022-11-05T02:16:43.664Z,64.54
2022-11-05T02:19:40.941Z,64.60
2022-11-05T02:22:41.519Z,64.68
2022-11-05T02:25:54.930Z,64.82
2022-11-05T02:29:26.453Z,64.77
2022-11-05T02:32:29.399Z,64.77
2022-11-05T02:35:37.453Z,64.83
2022-11-05T02:38:31.851Z,64.83
2022-11-05T02:42:04.964Z,64.95
2022-11-05T02:45:03.419Z,64.81
2022-11-05T02:48:04.097Z,64.94
2022-11-05T02:50:57.861Z,64.92
2022-11-05T02:54:01.945Z,64.89
2022-11-05T02:56:51.742Z,65.00
2022-11-05T02:59:36.880Z,64.90
2022-11-05T03:02:22.084Z,65.06
2022-11-05T03:05:07.415Z,65.01
2022-11-05T03:08:00.314Z,65.05
2022-11-05T03:11:17.706Z,65.06
2022-11-05T03:14:24.545Z,65.19
2022-11-05T03:17:27.951Z,65.15
2022-11-05T03:20:25.288Z,65.15
2022-11-05T03:23:33.811Z,65.12
2022-11-05T03:26:22.002Z,65.19
2022-11-05T03:29:16.571Z,65.14
2022-11-05T03:32:04.499Z,65.07
2022-11-05T03:34:59.939Z,65.04
2022-11-05T03:37:49.053Z,64.98
2022-11-05T03:40:37.762Z,65.12
2022-11-05T03:43:28.961Z,65.16
2022-11-05T03:46:27.878Z,65.06
2022-11-05T03:49:24.271Z,65.33
2022-11-05T03:52:18.469Z,65.20
2022-11-05T03:55:04.447Z,65.14
2022-11-05T03:57:54.003Z,65.35
2022-11-05T04:00:39.341Z,65.17
2022-11-05T04:03:24.781Z,65.32
2022-11-05T04:06:29.029Z,65.27
2022-11-05T04:09:32.922Z,65.33
2022-11-05T04:12:36.995Z,65.35
2022-11-05T04:15:22.080Z,65.45
2022-11-05T04:18:07.548Z,65.61
2022-11-05T04:21:11.420Z,65.38
2022-11-05T04:24:08.972Z,65.64
2022-11-05T04:26:54.521Z,65.66
2022-11-05T04:29:58.379Z,65.63
2022-11-05T04:32:54.569Z,65.77
2022-11-05T04:35:42.261Z,65.78
2022-11-05T04:38:27.421Z,65.78
2022-11-05T04:41:15.165Z,65.58
2022-11-05T04:44:00.652Z,65.82
2022-11-05T04:46:45.746Z,65.65
2022-11-05T04:49:31.134Z,65.70
2022-11-05T04:52:17.938Z,66.23
2022-11-05T04:55:04.593Z,65.78
2022-11-05T04:57:51.756Z,65.75
2022-11-05T05:00:37.429Z,65.77
2022-11-05T05:03:22.603Z,65.73
2022-11-05T05:06:08.472Z,65.87
2022-11-05T05:08:53.742Z,65.91
2022-11-05T05:11:39.140Z,66.05
2022-11-05T05:14:24.343Z,65.73
2022-11-05T05:17:09.870Z,65.70
2022-11-05T05:20:14.016Z,65.61
2022-11-05T05:22:59.272Z,65.51
2022-11-05T05:25:44.837Z,65.54
2022-11-05T05:28:29.914Z,65.62
2022-11-05T05:31:15.309Z,65.41
2022-11-05T05:34:00.576Z,65.31
2022-11-05T05:36:45.968Z,65.42
2022-11-05T05:39:31.225Z,65.48
2022-11-05T05:42:16.575Z,65.26
2022-11-05T05:45:01.890Z,65.22
2022-11-05T05:47:47.033Z,64.96
2022-11-05T05:50:32.114Z,66.11
2022-11-05T05:53:25.526Z,65.77
2022-11-05T05:56:11.162Z,65.87
2022-11-05T05:58:56.591Z,65.75
2022-11-05T06:01:42.160Z,65.92
2022-11-05T06:04:27.667Z,65.92
2022-11-05T06:07:13.338Z,65.76
2022-11-05T06:09:58.786Z,65.92
2022-11-05T06:12:44.055Z,65.65
2022-11-05T06:15:34.591Z,65.62
2022-11-05T06:18:21.278Z,65.82
2022-11-05T06:21:12.226Z,65.64
2022-11-05T06:23:57.406Z,65.65
2022-11-05T06:26:43.477Z,65.44
2022-11-05T06:29:28.977Z,65.15
2022-11-05T06:32:14.178Z,64.95
2022-11-05T06:34:59.683Z,65.08
2022-11-05T06:37:44.951Z,65.20
2022-11-05T06:40:30.305Z,65.09
2022-11-05T06:43:15.725Z,64.38
2022-11-05T06:46:02.879Z,63.47
2022-11-05T06:48:48.561Z,63.32
2022-11-05T06:51:33.810Z,63.64
2022-11-05T06:54:19.356Z,63.12
2022-11-05T06:57:06.157Z,63.24
2022-11-05T06:59:53.559Z,63.15
2022-11-05T07:02:42.733Z,62.99
2022-11-05T07:05:28.094Z,63.04
2022-11-05T07:08:13.782Z,63.11
2022-11-05T07:10:59.673Z,62.95
2022-11-05T07:13:46.335Z,63.33
2022-11-05T07:16:31.612Z,63.76
2022-11-05T07:19:17.242Z,63.64
2022-11-05T07:22:02.494Z,63.75
2022-11-05T07:24:50.077Z,63.36
2022-11-05T07:27:40.379Z,63.94
2022-11-05T07:30:26.634Z,63.77
2022-11-05T07:33:12.167Z,63.93
2022-11-05T07:35:58.071Z,64.03
2022-11-05T07:38:48.372Z,63.95
2022-11-05T07:41:35.569Z,63.83
2022-11-05T07:44:21.975Z,64.02
2022-11-05T07:47:08.086Z,64.41
2022-11-05T07:49:53.545Z,64.26
2022-11-05T07:52:39.389Z,64.37
2022-11-05T07:55:25.295Z,64.29
2022-11-05T07:58:12.000Z,64.29
2022-11-05T08:00:57.984Z,64.33
2022-11-05T08:03:43.481Z,64.08
2022-11-05T08:06:28.818Z,64.28
2022-11-05T08:09:14.222Z,64.57
2022-11-05T08:12:02.830Z,64.55
2022-11-05T08:14:48.778Z,64.03
2022-11-05T08:17:35.736Z,64.06
2022-11-05T08:20:21.316Z,64.14
2022-11-05T08:23:06.569Z,64.10
2022-11-05T08:25:52.213Z,64.02
2022-11-05T08:28:37.622Z,63.60
2022-11-05T08:31:22.864Z,63.97
2022-11-05T08:34:08.071Z,64.06
2022-11-05T08:36:53.452Z,64.24
2022-11-05T08:39:38.786Z,64.03
2022-11-05T08:42:24.033Z,64.13
2022-11-05T08:45:09.824Z,63.93
2022-11-05T08:48:02.884Z,63.98
2022-11-05T08:50:49.981Z,63.75
2022-11-05T08:53:35.049Z,63.69
2022-11-05T08:56:20.344Z,63.61
2022-11-05T08:59:06.112Z,63.51
2022-11-05T09:01:53.106Z,63.53
2022-11-05T09:04:38.558Z,63.41
2022-11-05T09:07:23.782Z,63.44
2022-11-05T09:10:09.412Z,63.50
2022-11-05T09:12:54.923Z,63.33
2022-11-05T09:15:41.135Z,63.57
2022-11-05T09:18:26.489Z,63.85
2022-11-05T09:21:12.186Z,63.85
2022-11-05T09:23:58.215Z,63.61
2022-11-05T09:26:44.256Z,63.63
2022-11-05T09:29:29.899Z,63.23
2022-11-05T09:32:19.391Z,63.30
2022-11-05T09:35:06.268Z,63.10
2022-11-05T09:37:54.521Z,63.32
2022-11-05T09:41:16.363Z,63.46
2022-11-05T09:44:23.848Z,63.57
2022-11-05T09:47:17.957Z,63.63
2022-11-05T09:50:09.535Z,63.59
2022-11-05T09:52:54.629Z,59.93
2022-11-05T09:55:42.632Z,62.16
2022-11-05T09:58:39.165Z,62.25
2022-11-05T10:01:30.893Z,61.94
2022-11-05T10:04:23.726Z,61.79
2022-11-05T10:07:14.482Z,61.87
2022-11-05T10:10:03.684Z,62.10
2022-11-05T10:12:57.057Z,62.23
2022-11-05T10:15:54.833Z,62.67
2022-11-05T10:18:44.411Z,61.79
2022-11-05T10:21:59.374Z,61.59
2022-11-05T10:24:37.728Z,61.38
2022-11-05T10:27:28.053Z,61.17
2022-11-05T10:30:15.104Z,61.13
2022-11-05T10:33:03.840Z,60.89
2022-11-05T10:35:57.809Z,60.74
2022-11-05T10:38:43.400Z,60.99
2022-11-05T10:41:43.149Z,60.85
2022-11-05T10:44:41.828Z,60.96
2022-11-05T10:47:40.270Z,60.94
2022-11-05T10:50:28.259Z,60.74
2022-11-05T10:53:18.422Z,61.27
2022-11-05T10:56:04.489Z,60.61
2022-11-05T10:58:56.164Z,60.47
2022-11-05T11:01:42.227Z,60.82
2022-11-05T11:04:36.520Z,60.90
2022-11-05T11:07:27.943Z,60.95
2022-11-05T11:10:23.145Z,60.98
2022-11-05T11:13:29.657Z,60.92
2022-11-05T11:16:20.334Z,60.95
2022-11-05T11:19:25.136Z,61.08
2022-11-05T11:22:18.477Z,61.24
2022-11-05T11:25:24.093Z,61.33
2022-11-05T11:28:36.074Z,60.90
2022-11-05T11:31:25.575Z,61.00
2022-11-05T11:34:29.370Z,60.92
2022-11-05T11:37:19.329Z,60.78
2022-11-05T11:40:19.554Z,60.98
2022-11-05T11:43:15.361Z,60.65
2022-11-05T11:46:07.713Z,60.55
2022-11-05T11:48:55.454Z,60.78
2022-11-05T11:51:49.675Z,60.53
2022-11-05T11:54:35.867Z,60.42
2022-11-05T11:57:27.271Z,60.35
2022-11-05T12:00:13.350Z,60.31
2022-11-05T12:03:31.034Z,60.20
2022-11-05T12:09:16.629Z,59.80
2022-11-05T12:12:11.547Z,59.87
2022-11-05T12:14:57.298Z,60.60
2022-11-05T12:17:50.674Z,60.07
2022-11-05T12:20:48.385Z,60.38
2022-11-05T12:23:57.260Z,60.23
2022-11-05T12:26:57.532Z,60.34
2022-11-05T12:32:56.075Z,60.30
2022-11-05T12:36:15.632Z,60.45
2022-11-05T12:39:07.289Z,60.28
2022-11-05T12:42:21.780Z,60.10
2022-11-05T12:45:22.648Z,59.43
2022-11-05T12:48:50.563Z,60.57
2022-11-05T12:51:51.478Z,60.08
2022-11-05T12:54:44.345Z,59.91
2022-11-05T12:57:32.169Z,59.87
2022-11-05T13:00:26.026Z,59.80
2022-11-05T13:03:17.399Z,59.73
2022-11-05T13:06:12.161Z,60.27
2022-11-05T13:09:12.694Z,60.34
2022-11-05T13:12:03.419Z,60.47
2022-11-05T13:14:56.468Z,60.65
2022-11-05T13:18:20.476Z,60.46
2022-11-05T13:21:08.757Z,60.77
2022-11-05T13:24:12.721Z,60.72
2022-11-05T13:27:19.686Z,60.82
2022-11-05T13:30:07.478Z,60.62
2022-11-05T13:33:10.661Z,61.01
2022-11-05T13:36:34.538Z,60.90
2022-11-05T13:39:26.490Z,61.08
2022-11-05T13:42:29.992Z,61.17
2022-11-05T13:45:36.136Z,60.26
2022-11-05T13:48:48.132Z,60.38
2022-11-05T13:51:45.878Z,60.04
2022-11-05T13:54:33.449Z,59.23
2022-11-05T13:57:22.031Z,59.22
2022-11-05T14:00:24.450Z,59.09
2022-11-05T14:03:21.590Z,59.47
2022-11-05T14:06:10.278Z,59.90
2022-11-05T14:09:02.806Z,60.31
2022-11-05T14:11:52.766Z,60.26
2022-11-05T14:14:48.091Z,60.27
2022-11-05T14:17:56.465Z,60.02
2022-11-05T14:20:58.349Z,60.11
2022-11-05T14:23:51.272Z,60.23
2022-11-05T14:26:36.668Z,60.33
2022-11-05T14:29:24.052Z,59.64
2022-11-05T14:32:18.852Z,60.04
2022-11-05T14:35:16.117Z,59.70
2022-11-05T14:38:02.549Z,59.92
2022-11-05T14:40:48.674Z,60.17
2022-11-05T14:43:36.204Z,61.67
2022-11-05T14:46:22.040Z,60.82
2022-11-05T14:49:17.593Z,60.84
2022-11-05T14:52:10.080Z,60.87
2022-11-05T14:54:58.549Z,61.03
2022-11-05T14:58:02.537Z,61.08
2022-11-05T15:00:48.704Z,60.72
2022-11-05T15:03:46.383Z,61.19
2022-11-05T15:06:36.553Z,61.27
2022-11-05T15:09:29.733Z,60.36
2022-11-05T15:12:34.626Z,60.52
2022-11-05T15:15:27.850Z,61.21
2022-11-05T15:18:20.898Z,60.81
2022-11-05T15:21:10.708Z,60.90
2022-11-05T15:23:56.987Z,61.18
2022-11-05T15:27:16.372Z,61.43
2022-11-05T15:30:18.870Z,61.43
2022-11-05T15:33:20.796Z,61.53
2022-11-05T15:36:29.661Z,61.71
2022-11-05T15:39:42.865Z,61.68
2022-11-05T15:42:28.476Z,61.82
2022-11-05T15:45:20.822Z,62.18
2022-11-05T15:48:19.776Z,62.77
2022-11-05T15:51:05.798Z,62.95
2022-11-05T15:56:58.984Z,63.86
2022-11-05T15:59:47.135Z,64.07
2022-11-05T16:02:35.128Z,63.96
2022-11-05T16:05:22.021Z,63.59
2022-11-05T16:08:18.958Z,63.60
2022-11-05T16:11:04.776Z,63.28
2022-11-05T16:13:51.798Z,63.59
2022-11-05T16:16:38.169Z,63.46
2022-11-05T16:19:42.602Z,63.50
2022-11-05T16:22:45.474Z,63.59
2022-11-05T16:25:42.744Z,63.59
2022-11-05T16:28:30.188Z,63.21
2022-11-05T16:31:15.859Z,63.13
2022-11-05T16:34:01.570Z,63.46
2022-11-05T16:36:47.556Z,63.25
2022-11-05T16:39:33.161Z,63.15
2022-11-05T16:42:24.893Z,63.12
2022-11-05T16:45:13.481Z,63.05
2022-11-05T16:47:59.175Z,63.21
2022-11-05T16:50:45.435Z,63.05
2022-11-05T16:53:30.656Z,63.12
2022-11-05T16:56:19.444Z,63.74
2022-11-05T16:59:04.739Z,63.66
2022-11-05T17:01:55.502Z,63.83
2022-11-05T17:04:41.108Z,63.89
2022-11-05T17:07:26.373Z,63.91
2022-11-05T17:10:11.803Z,63.85
2022-11-05T17:12:57.620Z,64.30
2022-11-05T17:15:45.047Z,64.77
2022-11-05T17:18:30.533Z,63.88
2022-11-05T17:21:16.304Z,62.49
2022-11-05T17:24:02.002Z,60.96
2022-11-05T17:26:48.046Z,60.35
2022-11-05T17:29:33.919Z,60.16
2022-11-05T17:32:19.750Z,60.96
2022-11-05T17:35:08.098Z,60.65
2022-11-05T17:37:53.940Z,60.57
2022-11-05T17:40:40.849Z,60.32
2022-11-05T17:43:26.312Z,60.12
2022-11-05T17:46:14.886Z,59.89
2022-11-05T17:49:00.684Z,59.22
2022-11-05T17:51:46.563Z,58.66
2022-11-05T17:54:31.916Z,58.21
2022-11-05T17:57:17.847Z,58.02
2022-11-05T18:00:03.960Z,57.75
2022-11-05T18:02:56.225Z,57.68
2022-11-05T18:05:44.467Z,57.75
2022-11-05T18:08:30.619Z,57.41
2022-11-05T18:11:17.480Z,57.79
2022-11-05T18:14:03.964Z,57.58
2022-11-05T18:16:50.615Z,57.81
2022-11-05T18:19:38.535Z,57.71
2022-11-05T18:22:51.112Z,58.24
2022-11-05T18:25:36.727Z,57.80
2022-11-05T18:28:23.390Z,57.76
2022-11-05T18:31:21.335Z,57.53
2022-11-05T18:34:08.146Z,57.13
2022-11-05T18:36:56.676Z,57.49
2022-11-05T18:39:42.461Z,57.74
2022-11-05T18:42:28.173Z,58.01
2022-11-05T18:45:13.490Z,58.50
2022-11-05T18:48:02.902Z,58.58
2022-11-05T18:50:49.534Z,58.66
2022-11-05T18:53:35.075Z,58.72
2022-11-05T18:56:20.418Z,58.65
2022-11-05T18:59:35.125Z,58.96
2022-11-05T19:02:15.708Z,59.11
2022-11-05T19:08:08.207Z,59.32
2022-11-05T19:10:54.626Z,59.53
2022-11-05T19:13:40.476Z,59.40
2022-11-05T19:16:29.239Z,59.28
2022-11-05T19:19:14.942Z,58.73
2022-11-05T19:22:00.149Z,58.92
2022-11-05T19:24:45.611Z,59.08
2022-11-05T19:27:31.272Z,59.36
2022-11-05T19:30:16.636Z,59.44
2022-11-05T19:33:02.586Z,59.49
2022-11-05T19:35:47.598Z,59.53
2022-11-05T19:38:33.371Z,59.53
2022-11-05T19:41:19.401Z,59.71
2022-11-05T19:44:05.058Z,60.12
2022-11-05T19:46:50.491Z,60.08
2022-11-05T19:49:35.819Z,60.01
2022-11-05T19:52:21.434Z,60.23
2022-11-05T19:55:11.957Z,60.35
2022-11-05T19:57:57.776Z,60.34
2022-11-05T20:00:43.430Z,60.28
2022-11-05T20:03:28.783Z,60.37
2022-11-05T20:06:17.414Z,60.50
2022-11-05T20:09:20.999Z,60.48
2022-11-05T20:12:08.157Z,60.54
2022-11-05T20:14:53.863Z,60.92
2022-11-05T20:17:39.495Z,61.32
2022-11-05T20:20:25.546Z,60.79
2022-11-05T20:23:11.248Z,60.78
2022-11-05T20:25:59.000Z,60.47
2022-11-05T20:28:44.434Z,60.78
2022-11-05T20:31:30.817Z,61.09
2022-11-05T20:34:16.522Z,61.36
2022-11-05T20:37:03.226Z,62.42
2022-11-05T20:39:48.811Z,61.59
2022-11-05T20:42:36.028Z,62.40
2022-11-05T20:45:21.558Z,62.06
2022-11-05T20:48:07.115Z,62.33
2022-11-05T20:50:53.621Z,62.17
2022-11-05T20:53:39.548Z,62.47
2022-11-05T20:56:28.231Z,62.32
2022-11-05T20:59:14.100Z,62.46
2022-11-05T21:01:59.565Z,62.46
2022-11-05T21:04:45.825Z,62.38
2022-11-05T21:07:31.347Z,62.43
2022-11-05T21:10:16.927Z,62.28
2022-11-05T21:13:02.275Z,62.50
2022-11-05T21:15:50.207Z,62.22
2022-11-05T21:18:38.930Z,62.48
2022-11-05T21:21:24.277Z,62.67
2022-11-05T21:24:09.466Z,62.45
2022-11-05T21:26:55.130Z,62.54
2022-11-05T21:29:40.640Z,62.92
2022-11-05T21:32:26.194Z,62.76
2022-11-05T21:35:12.323Z,62.85
2022-11-05T21:37:57.640Z,62.79
2022-11-05T21:40:43.224Z,63.36
2022-11-05T21:43:29.451Z,62.88
2022-11-05T21:46:14.773Z,62.92
2022-11-05T21:48:59.949Z,62.91
2022-11-05T21:52:03.815Z,62.86
2022-11-05T21:55:07.654Z,62.86
2022-11-05T21:58:11.563Z,62.56
2022-11-05T22:00:57.298Z,62.53
2022-11-05T22:03:42.459Z,62.47
2022-11-05T22:06:28.029Z,62.81
2022-11-05T22:09:13.116Z,63.01
2022-11-05T22:11:58.979Z,62.59
2022-11-05T22:14:44.460Z,62.73
2022-11-05T22:17:29.598Z,62.77
2022-11-05T22:20:16.086Z,62.63
2022-11-05T22:23:01.397Z,62.55
2022-11-05T22:25:46.716Z,62.62
2022-11-05T22:28:31.994Z,62.57
2022-11-05T22:31:17.525Z,62.79
2022-11-05T22:34:03.097Z,63.11
2022-11-05T22:36:48.726Z,62.76
2022-11-05T22:39:34.112Z,62.84
2022-11-05T22:42:19.318Z,62.63
2022-11-05T22:45:05.147Z,62.29
2022-11-05T22:47:50.351Z,62.33
2022-11-05T22:50:35.525Z,62.74
2022-11-05T22:53:20.780Z,62.89
2022-11-05T22:56:11.865Z,62.55
2022-11-05T22:58:58.162Z,62.79
2022-11-05T23:01:45.043Z,62.56
2022-11-05T23:04:30.623Z,62.93
2022-11-05T23:07:36.510Z,62.85
2022-11-05T23:10:40.402Z,62.81
2022-11-05T23:13:25.795Z,63.60
2022-11-05T23:16:29.634Z,62.91
2022-11-05T23:19:33.393Z,62.86
2022-11-05T23:22:42.516Z,62.83
2022-11-05T23:25:27.896Z,63.02
2022-11-05T23:28:13.960Z,62.84
2022-11-05T23:31:34.628Z,62.79
2022-11-05T23:34:19.998Z,62.82
2022-11-05T23:37:24.137Z,62.68
2022-11-05T23:40:14.885Z,62.76
2022-11-05T23:43:18.638Z,62.75
2022-11-05T23:46:22.561Z,62.67
2022-11-05T23:49:07.749Z,62.65
2022-11-05T23:51:53.263Z,62.72
2022-11-05T23:54:38.329Z,62.73
2022-11-05T23:57:23.621Z,62.65
